Time;durP1;ratioP1;P1;durP2;ratioP2;P2;SDS_P1;SDS_P2;PMS_P1;PMS_P2;Temp;Humidity;BMP_temperature;BMP_pressure;BME280_temperature;BME280_humidity;BME280_pressure;Samples;Min_cycle;Max_cycle;Signal;HPM_P1;HPM_P2
2022/08/03 00:01:48;;;;;;;14.70;11.90;;;;;;;17.77;75.96;98865.61;1628585;87;25615;-58
2022/08/03 00:04:15;;;;;;;13.80;11.78;;;;;;;17.66;76.29;98870.05;1628326;88;25723;-58
2022/08/03 00:06:41;;;;;;;16.80;11.70;;;;;;;17.55;76.38;98870.59;1628149;88;29579;-59
2022/08/03 00:09:08;;;;;;;15.55;11.53;;;;;;;17.48;76.64;98866.25;1628194;86;25506;-58
2022/08/03 00:11:35;;;;;;;13.60;11.85;;;;;;;17.45;76.72;98865.58;1628185;86;25495;-59
2022/08/03 00:14:04;;;;;;;15.13;11.43;;;;;;;17.41;76.75;98868.24;1639140;86;25720;-58
2022/08/03 00:16:32;;;;;;;16.65;12.23;;;;;;;17.38;76.92;98866.18;1655335;86;25503;-59
2022/08/03 00:18:58;;;;;;;15.15;12.70;;;;;;;17.44;77.02;98863.95;1655365;86;28048;-60
2022/08/03 00:21:24;;;;;;;14.33;12.70;;;;;;;17.49;76.99;98861.50;1655146;86;25680;-59
2022/08/03 00:23:50;;;;;;;14.65;12.78;;;;;;;17.53;77.05;98854.11;1655140;86;25650;-60
2022/08/03 00:26:16;;;;;;;14.38;12.37;;;;;;;17.53;77.11;98865.19;1654984;86;25763;-58
2022/08/03 00:28:43;;;;;;;14.78;12.68;;;;;;;17.52;77.29;98856.63;1641318;86;25687;-58
2022/08/03 00:31:09;;;;;;;13.28;11.88;;;;;;;17.55;77.13;98858.13;1628717;86;27541;-58
2022/08/03 00:33:36;;;;;;;14.53;12.25;;;;;;;17.52;76.83;98860.78;1628205;86;25692;-59
2022/08/03 00:36:03;;;;;;;14.87;13.38;;;;;;;17.48;76.90;98860.72;1628537;86;25746;-58
2022/08/03 00:38:29;;;;;;;13.88;12.30;;;;;;;17.40;77.39;98864.44;1628300;88;25832;-58
2022/08/03 00:40:56;;;;;;;13.75;11.60;;;;;;;17.28;77.69;98859.78;1628423;86;25467;-58
2022/08/03 00:43:28;;;;;;;13.38;11.70;;;;;;;17.21;77.80;98862.36;1628727;88;27382;-59
2022/08/03 00:45:55;;;;;;;13.35;11.95;;;;;;;17.19;77.75;98858.56;1628375;86;25691;-59
2022/08/03 00:48:24;;;;;;;14.05;12.28;;;;;;;17.16;77.68;98857.87;1628318;88;25712;-59
2022/08/03 00:50:52;;;;;;;13.03;11.68;;;;;;;17.08;78.15;98863.80;1628479;86;25627;-58
2022/08/03 00:53:19;;;;;;;15.10;12.80;;;;;;;16.97;78.19;98868.18;1628661;88;25668;-59
2022/08/03 00:55:47;;;;;;;15.13;11.80;;;;;;;17.03;78.25;98870.92;1628466;88;27383;-59
2022/08/03 00:58:13;;;;;;;16.85;12.10;;;;;;;17.09;77.96;98865.40;1637338;86;25669;-59
2022/08/03 01:00:41;;;;;;;16.30;12.23;;;;;;;17.01;77.88;98867.72;1637871;87;25614;-61
2022/08/03 01:03:10;;;;;;;16.67;12.00;;;;;;;16.88;77.99;98865.00;1633618;87;25702;-59
2022/08/03 01:05:55;;;;;;;13.48;11.85;;;;;;;16.80;78.47;98864.55;1689718;84;25493;-57
2022/08/03 01:08:45;;;;;;;16.10;13.43;;;;;;;16.78;78.26;98866.28;1688562;84;27499;-56
2022/08/03 01:11:33;;;;;;;16.95;12.47;;;;;;;16.66;78.57;98872.66;1689747;84;25678;-57
2022/08/03 01:14:13;;;;;;;15.10;12.58;;;;;;;16.60;78.68;98871.30;1688512;84;25621;-56
2022/08/03 01:17:02;;;;;;;13.93;11.63;;;;;;;16.64;79.15;98865.87;1689481;84;25829;-57
2022/08/03 01:19:43;;;;;;;14.50;12.23;;;;;;;16.73;78.90;98872.66;1678026;84;25417;-56
2022/08/03 01:22:32;;;;;;;13.95;12.07;;;;;;;16.79;78.93;98875.41;1637528;87;28815;-57
2022/08/03 01:25:09;;;;;;;16.42;11.95;;;;;;;16.80;78.53;98868.70;1637691;87;25634;-58
2022/08/03 01:27:58;;;;;;;14.98;12.63;;;;;;;16.79;79.03;98868.48;1637894;86;25478;-58
2022/08/03 01:30:34;;;;;;;14.53;11.40;;;;;;;16.82;79.21;98869.17;1638156;86;26348;-58
2022/08/03 01:33:05;;;;;;;15.38;11.25;;;;;;;16.79;78.82;98868.48;1637973;86;25672;-58
2022/08/03 01:35:51;;;;;;;12.88;11.15;;;;;;;16.72;78.92;98874.60;1637116;87;27506;-58
2022/08/03 01:38:34;;;;;;;14.38;11.60;;;;;;;16.66;78.99;98873.23;1600777;88;25484;-60
2022/08/03 01:41:08;;;;;;;15.50;12.13;;;;;;;16.68;79.13;98875.08;1607871;89;25430;-58
2022/08/03 01:43:36;;;;;;;14.45;12.60;;;;;;;16.68;79.07;98866.21;1618964;88;25698;-58
2022/08/03 01:46:04;;;;;;;16.23;12.78;;;;;;;16.68;79.23;98872.31;1618985;88;25421;-59
2022/08/03 01:48:32;;;;;;;17.05;12.93;;;;;;;16.66;79.33;98868.52;1618904;87;27380;-58
2022/08/03 01:51:00;;;;;;;13.78;12.07;;;;;;;16.66;79.42;98864.93;1618956;87;25439;-58
2022/08/03 01:53:27;;;;;;;14.68;12.58;;;;;;;16.71;79.48;98865.27;1629783;87;25638;-58
2022/08/03 01:55:56;;;;;;;14.85;11.57;;;;;;;16.65;79.45;98864.14;1645089;86;25733;-59
2022/08/03 01:58:24;;;;;;;14.87;13.32;;;;;;;16.50;79.66;98858.77;1645339;86;25651;-58
2022/08/03 02:00:52;;;;;;;13.53;12.13;;;;;;;16.52;80.22;98854.27;1645319;86;28440;-58
2022/08/03 02:03:26;;;;;;;13.68;12.00;;;;;;;16.57;80.01;98856.77;1645296;86;25791;-58
2022/08/03 02:05:58;;;;;;;14.90;12.33;;;;;;;16.57;79.76;98855.39;1645172;86;25497;-58
2022/08/03 02:08:28;;;;;;;15.20;12.13;;;;;;;16.47;79.70;98852.55;1645456;87;25765;-58
2022/08/03 02:11:01;;;;;;;13.65;12.23;;;;;;;16.46;80.20;98853.69;1645454;86;25444;-58
2022/08/03 02:13:32;;;;;;;14.45;12.93;;;;;;;16.49;80.17;98848.05;1628578;87;27539;-58
2022/08/03 02:16:03;;;;;;;16.55;12.85;;;;;;;16.49;80.14;98854.37;1645348;86;25444;-58
2022/08/03 02:18:32;;;;;;;13.78;12.15;;;;;;;16.46;79.94;98856.45;1645522;86;25620;-58
2022/08/03 02:21:03;;;;;;;16.17;11.97;;;;;;;16.28;80.18;98859.48;1644286;86;25455;-58
2022/08/03 02:23:30;;;;;;;14.65;13.10;;;;;;;16.24;80.68;98855.81;1645485;87;25478;-58
2022/08/03 02:26:01;;;;;;;15.63;12.40;;;;;;;16.29;80.69;98849.20;1645365;87;27519;-58
2022/08/03 02:28:41;;;;;;;13.65;12.18;;;;;;;16.37;80.61;98850.23;1645441;86;25670;-58
2022/08/03 02:31:11;;;;;;;14.90;12.82;;;;;;;16.35;80.05;98845.05;1645495;86;25721;-58
2022/08/03 02:33:41;;;;;;;;;;;;;;;16.23;80.34;98843.13;1646581;86;25758;-59
2022/08/03 02:36:10;;;;;;;15.08;12.20;;;;;;;16.13;80.69;98845.80;1645515;87;25469;-58
2022/08/03 02:38:40;;;;;;;14.98;12.37;;;;;;;16.08;80.72;98849.34;1645444;86;27467;-58
2022/08/03 02:41:12;;;;;;;14.58;12.28;;;;;;;16.05;80.91;98850.29;1645414;86;25694;-58
2022/08/03 02:43:40;;;;;;;16.20;12.58;;;;;;;16.09;80.63;98853.14;1645303;86;25459;-58
2022/08/03 02:46:08;;;;;;;13.85;12.33;;;;;;;16.07;80.51;98855.47;1645315;86;26545;-58
2022/08/03 02:48:36;;;;;;;13.18;11.30;;;;;;;16.01;80.41;98853.48;1645232;86;25597;-57
2022/08/03 02:51:04;;;;;;;13.88;11.75;;;;;;;15.98;80.47;98850.06;1645196;86;27577;-58
2022/08/03 02:53:32;;;;;;;14.15;11.95;;;;;;;15.95;80.51;98851.30;1645360;86;25430;-59
2022/08/03 02:56:00;;;;;;;14.00;11.83;;;;;;;15.92;80.63;98855.56;1645295;86;25643;-58
2022/08/03 02:58:28;;;;;;;13.98;11.85;;;;;;;15.91;80.81;98860.84;1645009;86;25840;-59
2022/08/03 03:00:55;;;;;;;13.38;12.00;;;;;;;15.98;80.53;98865.27;1645353;86;25746;-58
2022/08/03 03:03:22;;;;;;;15.80;11.60;;;;;;;15.96;80.41;98866.71;1640934;86;28636;-58
2022/08/03 03:05:49;;;;;;;14.55;11.73;;;;;;;15.91;80.51;98860.84;1639695;87;25497;-58
2022/08/03 03:08:19;;;;;;;13.58;10.70;;;;;;;15.90;80.61;98866.14;1639809;87;25462;-58
2022/08/03 03:10:46;;;;;;;13.98;11.55;;;;;;;15.96;80.78;98868.09;1640248;85;27821;-58
2022/08/03 03:13:15;;;;;;;12.50;11.20;;;;;;;16.05;80.48;98866.88;1644060;85;25960;-58
2022/08/03 03:15:42;;;;;;;12.88;10.98;;;;;;;16.08;79.99;98862.60;1644155;86;27461;-58
2022/08/03 03:18:10;;;;;;;12.47;11.10;;;;;;;16.07;80.05;98870.67;1643814;86;25838;-58
2022/08/03 03:20:39;;;;;;;13.10;11.12;;;;;;;16.04;80.27;98869.39;1643935;86;25759;-59
2022/08/03 03:23:07;;;;;;;13.55;11.53;;;;;;;16.07;80.07;98867.91;1643969;86;26645;-58
2022/08/03 03:25:35;;;;;;;13.85;11.25;;;;;;;16.04;79.99;98865.83;1644144;87;25626;-58
2022/08/03 03:28:03;;;;;;;12.85;10.65;;;;;;;15.93;80.32;98873.18;1643720;86;29592;-58
2022/08/03 03:30:30;;;;;;;14.20;10.98;;;;;;;15.82;80.58;98866.48;1643918;87;25494;-58
2022/08/03 03:32:58;;;;;;;11.63;10.18;;;;;;;15.73;80.71;98872.68;1643915;86;25620;-60
2022/08/03 03:35:26;;;;;;;12.25;10.38;;;;;;;15.72;80.80;98868.31;1643086;85;26589;-58
2022/08/03 03:37:59;;;;;;;12.63;10.72;;;;;;;15.79;80.98;98867.16;1642422;87;25658;-58
2022/08/03 03:40:30;;;;;;;13.25;11.12;;;;;;;15.88;80.83;98867.87;1642733;87;27383;-58
2022/08/03 03:43:02;;;;;;;13.13;11.63;;;;;;;15.97;80.81;98865.02;1618593;87;25862;-58
2022/08/03 03:45:34;;;;;;;17.02;12.05;;;;;;;16.09;80.67;98866.97;1642434;87;25662;-58
2022/08/03 03:48:03;;;;;;;15.58;11.88;;;;;;;16.18;80.52;98869.64;1642488;87;25811;-58
2022/08/03 03:50:31;;;;;;;13.62;10.78;;;;;;;16.15;80.22;98872.50;1642419;87;25676;-58
2022/08/03 03:52:58;;;;;;;13.88;10.95;;;;;;;16.07;80.48;98868.47;1642541;87;27306;-59
2022/08/03 03:55:24;;;;;;;15.10;11.08;;;;;;;16.02;80.82;98875.04;1642161;87;25731;-58
2022/08/03 03:57:50;;;;;;;15.95;12.33;;;;;;;16.06;81.02;98874.57;1639826;86;25483;-59
2022/08/03 04:00:18;;;;;;;16.85;13.30;;;;;;;16.13;81.04;98874.82;1634667;87;25781;-58
2022/08/03 04:02:45;;;;;;;15.60;11.95;;;;;;;16.21;81.07;98884.72;1634982;87;25697;-58
2022/08/03 04:10:59;;;;;;;14.75;12.15;;;;;;;16.50;81.13;98888.37;1631826;87;25649;-60
2022/08/03 04:13:33;;;;;;;12.75;11.38;;;;;;;16.46;81.37;98886.88;1618654;87;26407;-58
2022/08/03 04:16:00;;;;;;;14.50;12.03;;;;;;;16.53;81.50;98888.47;1632263;87;25438;-59
2022/08/03 04:18:30;;;;;;;13.98;11.73;;;;;;;16.66;81.55;98885.69;1632117;87;27595;-58
2022/08/03 04:21:03;;;;;;;16.48;12.07;;;;;;;16.77;81.58;98892.36;1632105;87;25629;-58
2022/08/03 04:23:33;;;;;;;14.35;11.50;;;;;;;16.92;81.38;98896.34;1631985;87;25648;-58
2022/08/03 04:26:03;;;;;;;15.08;12.37;;;;;;;17.06;80.91;98899.30;1631941;87;27391;-58
2022/08/03 04:28:32;;;;;;;15.53;12.40;;;;;;;17.14;80.97;98898.38;1632561;87;25469;-59
2022/08/03 04:31:03;;;;;;;15.93;12.82;;;;;;;17.26;81.06;98896.70;1632212;87;27500;-58
2022/08/03 04:33:32;;;;;;;15.90;13.15;;;;;;;17.38;80.71;98900.80;1631820;86;26353;-58
2022/08/03 04:36:01;;;;;;;17.70;13.30;;;;;;;17.56;80.60;98900.50;1607718;89;25647;-58
2022/08/03 04:38:31;;;;;;;14.63;12.95;;;;;;;17.66;80.74;98901.92;1607469;89;25757;-59
2022/08/03 04:40:59;;;;;;;17.02;13.60;;;;;;;17.81;80.50;98903.09;1607757;89;25601;-58
2022/08/03 04:43:27;;;;;;;17.62;13.68;;;;;;;17.90;79.84;98902.34;1607161;89;27399;-58
2022/08/03 04:45:55;;;;;;;15.90;12.90;;;;;;;18.15;80.47;98902.20;1607430;89;25727;-60
2022/08/03 04:48:22;;;;;;;14.10;12.03;;;;;;;18.50;79.59;98905.34;1607146;89;25756;-58
2022/08/03 04:50:51;;;;;;;14.78;12.10;;;;;;;18.77;79.26;98909.13;1607435;89;25760;-58
2022/08/03 04:53:23;;;;;;;12.97;11.67;;;;;;;18.93;77.64;98903.53;1607832;89;25652;-59
2022/08/03 04:55:50;;;;;;;13.93;11.95;;;;;;;19.12;77.69;98899.19;1607720;89;27402;-58
2022/08/03 04:58:16;;;;;;;14.18;11.57;;;;;;;19.43;77.20;98903.55;1623246;86;25815;-58
2022/08/03 05:00:44;;;;;;;17.77;12.23;;;;;;;19.61;76.83;98902.48;1622801;87;25667;-58
2022/08/03 05:03:10;;;;;;;14.78;11.73;;;;;;;19.80;75.73;98896.05;1623038;86;26114;-59
2022/08/03 05:05:36;;;;;;;14.78;12.25;;;;;;;19.90;75.67;98893.83;1623278;87;25733;-58
2022/08/03 05:08:04;;;;;;;13.85;12.25;;;;;;;19.96;74.58;98895.13;1622957;87;27439;-58
2022/08/03 05:10:30;;;;;;;14.98;12.23;;;;;;;19.92;74.76;98899.84;1623217;87;25611;-58
2022/08/03 05:12:56;;;;;;;16.02;11.70;;;;;;;19.90;74.33;98903.56;1622843;88;25690;-59
2022/08/03 05:15:22;;;;;;;15.85;12.35;;;;;;;19.91;74.03;98902.38;1622885;87;26611;-59
2022/08/03 05:17:48;;;;;;;15.90;11.70;;;;;;;19.90;73.90;98897.43;1622854;87;25631;-58
2022/08/03 05:20:14;;;;;;;15.43;11.60;;;;;;;19.93;73.91;98899.47;1622849;87;27499;-60
2022/08/03 05:22:40;;;;;;;14.93;11.65;;;;;;;19.99;74.13;98899.14;1623081;86;25815;-58
2022/08/03 05:25:07;;;;;;;15.05;12.07;;;;;;;20.14;73.77;98896.03;1622339;86;25817;-58
2022/08/03 05:27:33;;;;;;;14.68;10.20;;;;;;;20.23;73.03;98901.36;1623331;88;25734;-59
2022/08/03 05:29:59;;;;;;;12.50;10.88;;;;;;;20.18;72.26;98906.64;1622805;88;25483;-58
2022/08/03 05:32:25;;;;;;;13.83;10.85;;;;;;;20.14;72.82;98906.58;1623270;86;27839;-58
2022/08/03 05:34:51;;;;;;;16.62;10.70;;;;;;;20.14;72.83;98903.80;1623035;87;25817;-59
2022/08/03 05:37:17;;;;;;;15.75;10.50;;;;;;;20.23;73.56;98902.14;1622775;87;25723;-59
2022/08/03 05:39:43;;;;;;;14.43;9.70;;;;;;;20.46;72.46;98898.50;1623171;87;25675;-60
2022/08/03 05:42:09;;;;;;;12.23;9.23;;;;;;;20.66;71.83;98908.94;1622805;87;25783;-59
2022/08/03 05:44:37;;;;;;;15.78;10.45;;;;;;;20.80;71.05;98904.16;1623108;87;27439;-58
2022/08/03 05:47:05;;;;;;;11.00;8.78;;;;;;;20.93;70.75;98906.13;1622790;87;25463;-59
2022/08/03 05:49:30;;;;;;;10.23;8.33;;;;;;;21.03;69.73;98912.22;1622870;87;25628;-59
2022/08/03 05:51:57;;;;;;;14.33;9.68;;;;;;;21.02;69.51;98907.84;1623155;87;25702;-58
2022/08/03 05:54:23;;;;;;;11.33;9.08;;;;;;;21.16;70.47;98912.79;1623218;87;25604;-58
2022/08/03 05:56:49;;;;;;;12.10;9.53;;;;;;;21.27;69.30;98910.13;1623000;87;27397;-58
2022/08/03 05:59:15;;;;;;;12.23;9.40;;;;;;;21.33;68.90;98911.98;1628719;87;25696;-58
2022/08/03 06:01:41;;;;;;;13.60;9.28;;;;;;;21.40;69.76;98909.27;1632206;87;25606;-58
2022/08/03 06:04:08;;;;;;;12.37;9.60;;;;;;;21.47;69.25;98914.13;1632134;86;26550;-58
2022/08/03 06:06:34;;;;;;;13.60;10.43;;;;;;;21.48;69.07;98919.33;1631821;87;25494;-58
2022/08/03 06:09:00;;;;;;;14.78;10.15;;;;;;;21.48;68.90;98911.55;1631886;87;27437;-58
2022/08/03 06:11:26;;;;;;;12.63;9.35;;;;;;;21.48;68.53;98915.72;1631834;86;25898;-59
2022/08/03 06:13:52;;;;;;;10.98;8.83;;;;;;;21.59;69.08;98922.81;1631532;86;25730;-58
2022/08/03 06:16:19;;;;;;;13.65;9.00;;;;;;;21.68;68.72;98922.70;1631696;87;25777;-58
2022/08/03 06:18:45;;;;;;;11.75;9.48;;;;;;;21.72;68.23;98918.56;1631810;87;25677;-58
2022/08/03 06:21:11;;;;;;;10.18;9.08;;;;;;;21.78;67.45;98919.84;1632307;86;28104;-58
2022/08/03 06:23:38;;;;;;;11.20;9.38;;;;;;;21.86;68.11;98923.51;1631756;86;25720;-59
2022/08/03 06:26:05;;;;;;;10.82;9.50;;;;;;;22.03;67.68;98923.47;1631978;86;25506;-58
2022/08/03 06:28:31;;;;;;;11.63;9.30;;;;;;;22.12;66.44;98931.51;1631959;87;25904;-59
2022/08/03 06:30:57;;;;;;;13.40;9.05;;;;;;;22.27;67.26;98931.61;1632146;87;25645;-59
2022/08/03 06:33:25;;;;;;;10.48;9.05;;;;;;;22.47;65.89;98934.95;1631882;87;27431;-58
2022/08/03 06:35:52;;;;;;;14.55;9.40;;;;;;;22.64;65.47;98939.67;1631886;86;25658;-58
2022/08/03 06:38:18;;;;;;;9.18;8.25;;;;;;;22.81;65.29;98932.60;1631554;87;25627;-61
2022/08/03 06:40:45;;;;;;;10.05;8.30;;;;;;;23.00;64.65;98930.70;1632271;87;26289;-59
2022/08/03 06:43:14;;;;;;;9.53;7.65;;;;;;;23.21;64.12;98929.19;1631750;87;25592;-58
2022/08/03 06:45:41;;;;;;;12.88;8.48;;;;;;;23.39;63.11;98941.86;1631715;87;26010;-59
2022/08/03 06:48:11;;;;;;;10.75;7.85;;;;;;;23.49;63.00;98939.69;1631902;87;25747;-59
2022/08/03 06:50:40;;;;;;;10.32;7.75;;;;;;;23.59;61.89;98938.71;1632037;87;25616;-59
2022/08/03 06:53:11;;;;;;;9.95;8.10;;;;;;;23.74;62.99;98942.34;1632265;87;26327;-59
2022/08/03 06:55:38;;;;;;;10.40;7.08;;;;;;;23.94;61.58;98935.19;1631826;86;25624;-59
2022/08/03 06:58:04;;;;;;;13.95;8.58;;;;;;;24.12;62.00;98929.41;1631971;85;28304;-59
2022/08/03 07:00:31;;;;;;;9.85;7.83;;;;;;;24.30;60.23;98933.63;1632039;87;25704;-58
2022/08/03 07:02:57;;;;;;;10.60;8.18;;;;;;;24.30;60.04;98934.41;1632089;87;25649;-59
2022/08/03 07:05:24;;;;;;;9.15;7.30;;;;;;;24.39;60.48;98932.63;1631750;87;25777;-58
2022/08/03 07:07:56;;;;;;;11.73;7.53;;;;;;;24.57;60.55;98930.38;1631797;87;25691;-59
2022/08/03 07:10:22;;;;;;;12.47;8.10;;;;;;;24.73;59.52;98934.76;1631964;87;26563;-58
2022/08/03 07:12:49;;;;;;;11.65;7.83;;;;;;;24.89;59.35;98932.93;1631615;87;27145;-58
2022/08/03 07:15:17;;;;;;;13.93;7.97;;;;;;;25.02;58.68;98930.50;1631750;87;25506;-59
2022/08/03 07:17:43;;;;;;;9.30;7.50;;;;;;;25.15;57.86;98937.84;1631974;87;25741;-59
2022/08/03 07:20:12;;;;;;;10.53;6.83;;;;;;;25.25;57.32;98927.80;1632035;87;25724;-59
2022/08/03 07:22:38;;;;;;;10.00;7.58;;;;;;;25.43;58.55;98920.70;1632004;87;26972;-60
2022/08/03 07:25:07;;;;;;;9.83;7.58;;;;;;;25.71;57.20;98925.17;1632157;86;25640;-59
2022/08/03 07:27:33;;;;;;;14.50;8.93;;;;;;;25.84;56.71;98924.09;1631993;87;25641;-59
2022/08/03 07:30:13;;;;;;;14.78;8.23;;;;;;;25.66;55.31;98934.23;1632037;87;25761;-59
2022/08/03 07:32:41;;;;;;;15.08;8.80;;;;;;;25.64;56.36;98922.60;1631989;87;25678;-59
2022/08/03 07:35:09;;;;;;;15.53;9.20;;;;;;;25.98;56.17;98924.56;1631928;87;27490;-59
2022/08/03 07:37:37;;;;;;;15.85;9.23;;;;;;;26.28;54.42;98925.32;1631963;87;25854;-59
2022/08/03 07:40:06;;;;;;;14.75;8.63;;;;;;;26.50;55.43;98922.34;1631910;87;25518;-59
2022/08/03 07:42:32;;;;;;;13.30;8.75;;;;;;;26.86;54.80;98927.39;1632059;87;25777;-59
2022/08/03 07:44:59;;;;;;;14.83;8.90;;;;;;;27.10;54.42;98924.72;1631949;87;25687;-59
2022/08/03 07:47:29;;;;;;;14.00;8.43;;;;;;;27.28;54.29;98923.89;1631725;87;27433;-59
2022/08/03 07:49:56;;;;;;;11.93;8.28;;;;;;;27.52;53.12;98921.78;1632049;87;25639;-59
2022/08/03 07:55:10;;;;;;;10.70;6.85;;;;;;;27.72;52.50;98915.48;1607047;89;25655;-58
2022/08/03 07:57:37;;;;;;;11.57;7.90;;;;;;;28.00;52.96;98917.05;1630986;86;25781;-59
2022/08/03 08:00:17;;;;;;;8.18;7.00;;;;;;;28.35;50.83;98918.92;1639720;86;27412;-60
2022/08/03 08:02:44;;;;;;;;;;;;;;;28.39;48.63;98914.82;1646350;86;25956;-58
2022/08/03 08:05:11;;;;;;;7.40;6.47;;;;;;;28.41;48.29;98920.80;1643920;85;25683;-58
2022/08/03 08:07:39;;;;;;;6.10;5.50;;;;;;;28.55;48.61;98918.95;1643934;86;25644;-58
2022/08/03 08:10:08;;;;;;;6.65;5.60;;;;;;;28.76;48.21;98916.36;1643790;86;25517;-58
2022/08/03 08:12:37;;;;;;;6.97;5.45;;;;;;;29.13;47.14;98917.84;1643764;85;27460;-58
2022/08/03 08:15:06;;;;;;;6.03;4.62;;;;;;;29.26;45.92;98918.59;1643764;87;25677;-58
2022/08/03 08:17:53;;;;;;;5.85;5.12;;;;;;;29.41;47.88;98914.23;1644149;86;25791;-58
2022/08/03 08:20:24;;;;;;;6.45;4.30;;;;;;;29.65;47.09;98916.16;1643845;86;25746;-58
2022/08/03 08:22:51;;;;;;;4.55;4.15;;;;;;;29.95;45.57;98921.91;1643394;87;25658;-57
2022/08/03 08:25:18;;;;;;;4.47;4.08;;;;;;;30.15;43.60;98921.20;1643853;86;27438;-58
2022/08/03 08:27:48;;;;;;;3.83;3.50;;;;;;;29.85;41.90;98922.35;1643746;87;25710;-59
2022/08/03 08:30:18;;;;;;;3.25;2.95;;;;;;;29.77;40.65;98923.14;1643951;86;25713;-58
2022/08/03 08:32:45;;;;;;;3.70;3.12;;;;;;;29.77;42.13;98922.53;1644242;86;26906;-58
2022/08/03 08:35:12;;;;;;;4.75;3.80;;;;;;;29.91;40.68;98923.42;1643408;85;25607;-58
2022/08/03 08:37:40;;;;;;;3.60;3.30;;;;;;;29.98;40.79;98928.08;1643704;87;27287;-58
2022/08/03 08:40:09;;;;;;;4.37;3.90;;;;;;;29.79;40.16;98927.11;1643751;86;25649;-58
2022/08/03 08:42:41;;;;;;;4.95;3.10;;;;;;;29.54;41.15;98931.30;1644035;86;25469;-58
2022/08/03 08:45:10;;;;;;;3.20;2.90;;;;;;;29.74;41.43;98922.00;1643873;86;26277;-58
2022/08/03 08:47:41;;;;;;;2.75;2.47;;;;;;;29.99;39.11;98923.41;1644028;86;25683;-58
2022/08/03 08:50:09;;;;;;;3.67;2.70;;;;;;;30.16;38.31;98916.33;1643562;86;27358;-58
2022/08/03 08:52:40;;;;;;;4.42;2.60;;;;;;;30.49;37.37;98922.59;1643661;87;25504;-58
2022/08/03 08:55:10;;;;;;;3.37;2.90;;;;;;;30.59;39.28;98921.51;1643856;86;25582;-58
2022/08/03 08:57:44;;;;;;;3.98;3.00;;;;;;;30.86;38.21;98921.03;1627011;87;25835;-58
2022/08/03 09:00:13;;;;;;;4.40;3.40;;;;;;;31.21;38.50;98921.84;1630626;87;25702;-57
2022/08/03 09:02:42;;;;;;;3.67;3.30;;;;;;;31.43;36.66;98919.98;1622870;87;27441;-57
2022/08/03 09:05:16;;;;;;;3.50;3.20;;;;;;;31.58;36.68;98920.16;1622490;86;25702;-58
2022/08/03 09:07:44;;;;;;;2.90;2.70;;;;;;;31.91;35.69;98927.80;1622976;88;25589;-58
2022/08/03 09:10:14;;;;;;;4.00;2.83;;;;;;;31.73;34.60;98922.71;1622805;87;25738;-58
2022/08/03 09:12:51;;;;;;;4.65;2.72;;;;;;;31.43;35.60;98926.28;1623045;88;25484;-57
2022/08/03 09:15:25;;;;;;;2.87;2.67;;;;;;;31.37;34.64;98928.09;1622752;86;27591;-59
2022/08/03 09:17:55;;;;;;;2.92;2.47;;;;;;;31.32;34.36;98920.91;1623067;87;25463;-59
2022/08/03 09:20:24;;;;;;;3.05;2.75;;;;;;;31.65;35.80;98918.52;1623199;87;25684;-59
2022/08/03 09:23:09;;;;;;;3.92;2.55;;;;;;;32.04;36.19;98920.71;1623195;87;26354;-59
2022/08/03 09:25:41;;;;;;;3.70;2.40;;;;;;;32.55;33.04;98913.34;1622698;87;25638;-59
2022/08/03 09:28:14;;;;;;;4.75;2.50;;;;;;;32.82;31.41;98911.81;1612063;88;27696;-59
2022/08/03 09:30:43;;;;;;;2.52;2.33;;;;;;;32.99;33.36;98911.80;1622797;87;25491;-58
2022/08/03 09:33:18;;;;;;;2.65;2.37;;;;;;;33.06;32.94;98915.00;1623092;87;25637;-59
2022/08/03 09:35:48;;;;;;;2.40;2.20;;;;;;;33.49;34.11;98916.81;1622353;86;25462;-58
2022/08/03 09:38:22;;;;;;;3.75;2.90;;;;;;;34.04;31.70;98914.02;1623072;88;25479;-56
2022/08/03 09:40:47;;;;;;;6.12;3.10;;;;;;;34.54;32.99;98918.06;1622206;86;26882;-56
2022/08/03 09:43:14;;;;;;;3.12;2.92;;;;;;;34.93;31.61;98912.53;1622759;88;26540;-56
2022/08/03 09:45:43;;;;;;;2.80;2.60;;;;;;;35.32;31.50;98914.83;1623027;87;25675;-57
2022/08/03 09:48:33;;;;;;;4.30;2.70;;;;;;;35.58;29.62;98913.79;1623326;87;26021;-56
2022/08/03 09:51:02;;;;;;;3.45;2.70;;;;;;;35.63;29.80;98911.69;1622890;87;25625;-56
2022/08/03 09:53:29;;;;;;;;;;;;;;;35.54;29.22;98908.88;1625776;87;27548;-56
2022/08/03 09:56:02;;;;;;;2.92;2.50;;;;;;;35.58;28.63;98904.44;1622777;88;25500;-56
2022/08/03 09:58:31;;;;;;;3.52;2.90;;;;;;;35.74;29.39;98908.97;1623027;87;25569;-56
2022/08/03 10:01:02;;;;;;;3.37;3.03;;;;;;;35.65;28.81;98905.51;1630659;87;25698;-56
2022/08/03 10:03:35;;;;;;;2.98;2.67;;;;;;;35.54;28.63;98901.75;1631532;87;25605;-56
2022/08/03 10:06:25;;;;;;;3.22;2.92;;;;;;;35.65;29.95;98914.86;1613619;87;27435;-59
2022/08/03 10:09:11;;;;;;;2.60;2.40;;;;;;;35.33;29.00;98911.50;1630488;87;25688;-58
2022/08/03 10:11:40;;;;;;;2.27;2.02;;;;;;;34.82;28.53;98905.25;1579073;89;25761;-58
2022/08/03 10:14:09;;;;;;;4.12;2.50;;;;;;;34.71;29.24;98897.84;1579148;90;25755;-59
2022/08/03 10:16:39;;;;;;;3.02;2.30;;;;;;;34.53;27.48;98902.23;1579276;90;25735;-58
2022/08/03 10:19:08;;;;;;;2.30;2.10;;;;;;;34.22;28.99;98896.84;1579190;90;28214;-58
2022/08/03 10:21:40;;;;;;;;;;;;;;;34.72;28.30;98895.95;1581761;90;25768;-59
2022/08/03 10:24:09;;;;;;;3.65;2.30;;;;;;;34.20;28.04;98894.33;1579133;90;25556;-57
2022/08/03 10:26:38;;;;;;;;;;;;;;;33.89;28.75;98895.98;1581492;90;25836;-56
2022/08/03 10:29:10;;;;;;;2.65;2.45;;;;;;;33.94;28.77;98895.98;1579015;89;25551;-56
2022/08/03 10:31:39;;;;;;;4.05;2.08;;;;;;;34.18;29.36;98903.33;1578960;89;27480;-56
2022/08/03 10:34:11;;;;;;;2.30;2.10;;;;;;;34.78;29.77;98901.16;1578701;89;25527;-56
2022/08/03 10:36:40;;;;;;;2.50;2.30;;;;;;;35.58;28.55;98900.97;1564430;90;25701;-59
2022/08/03 10:39:08;;;;;;;3.08;2.20;;;;;;;36.20;29.72;98896.50;1575440;91;25712;-59
2022/08/03 10:41:39;;;;;;;2.37;2.08;;;;;;;36.22;28.79;98899.70;1576943;90;25817;-58
2022/08/03 10:44:19;;;;;;;3.10;2.30;;;;;;;36.43;27.63;98896.22;1580256;89;27618;-59
2022/08/03 10:46:47;;;;;;;2.98;2.27;;;;;;;36.97;25.84;98889.70;1580025;90;25700;-59
2022/08/03 10:49:17;;;;;;;2.37;2.00;;;;;;;37.00;26.37;98894.44;1633665;87;25695;-59
2022/08/03 10:51:46;;;;;;;2.52;2.33;;;;;;;36.97;26.07;98891.93;1638288;87;25597;-58
2022/08/03 10:57:53;;;;;;;2.08;1.80;;;;;;;36.44;25.36;98892.88;1632193;87;27481;-59
2022/08/03 11:00:23;;;;;;;1.80;1.70;;;;;;;35.98;26.08;98889.69;1622091;86;26540;-59
2022/08/03 11:03:09;;;;;;;2.42;2.00;;;;;;;35.44;25.50;98883.92;1623084;86;25636;-58
2022/08/03 11:05:46;;;;;;;2.15;1.95;;;;;;;35.21;26.23;98883.38;1624767;86;25639;-58
2022/08/03 11:08:33;;;;;;;2.17;1.98;;;;;;;34.84;25.74;98877.73;1618648;87;25753;-61
2022/08/03 11:11:17;;;;;;;2.50;1.75;;;;;;;34.64;25.59;98874.11;1620430;87;27704;-58
2022/08/03 11:14:07;;;;;;;2.60;1.90;;;;;;;34.39;27.10;98873.16;1622819;88;25883;-58
2022/08/03 11:16:57;;;;;;;1.80;1.70;;;;;;;33.83;26.06;98875.12;1621918;88;25488;-58
2022/08/03 11:19:29;;;;;;;2.15;1.98;;;;;;;32.93;26.59;98868.23;1617648;88;25706;-59
2022/08/03 11:21:57;;;;;;;1.85;1.75;;;;;;;32.92;28.28;98863.80;1619403;88;25477;-58
2022/08/03 11:24:52;;;;;;;2.77;1.80;;;;;;;33.24;27.21;98865.27;1621382;88;27556;-58
2022/08/03 11:27:21;;;;;;;2.27;2.08;;;;;;;33.07;26.35;98856.97;1621026;88;25659;-58
2022/08/03 11:30:20;;;;;;;4.22;2.12;;;;;;;32.21;27.42;98858.84;1623435;87;25749;-58
2022/08/03 11:32:51;;;;;;;;;;;;;;;32.30;29.18;98856.86;1630545;86;27776;-58
2022/08/03 11:35:27;;;;;;;2.10;1.90;;;;;;;33.08;29.72;98854.31;1627638;88;25633;-58
2022/08/03 11:38:09;;;;;;;2.10;2.00;;;;;;;33.75;28.47;98851.89;1625625;86;27472;-58
2022/08/03 11:40:51;;;;;;;2.60;2.40;;;;;;;33.99;25.88;98849.91;1626579;86;25716;-58
2022/08/03 11:43:36;;;;;;;2.40;2.20;;;;;;;33.79;27.11;98857.59;1627095;86;25503;-58
2022/08/03 11:46:20;;;;;;;2.15;2.00;;;;;;;34.11;26.24;98854.66;1626838;86;26558;-58
2022/08/03 11:48:49;;;;;;;3.95;2.20;;;;;;;34.74;26.25;98849.94;1626987;88;25688;-59
2022/08/03 11:51:31;;;;;;;2.42;2.22;;;;;;;35.44;25.42;98849.73;1627280;86;27559;-58
2022/08/03 11:54:04;;;;;;;2.60;2.40;;;;;;;35.33;25.78;98848.84;1627059;88;25534;-58